createdAt,value
2018-06-28T00:01:03.256Z,1.93
2018-06-28T00:03:32.449Z,1.37
2018-06-28T00:06:01.600Z,2.43
2018-06-28T00:08:36.788Z,1.30
2018-06-28T00:11:05.543Z,1.73
2018-06-28T00:13:34.139Z,2.00
2018-06-28T00:16:02.508Z,1.83
2018-06-28T00:18:31.699Z,1.40
2018-06-28T00:21:00.228Z,1.43
2018-06-28T00:23:28.583Z,2.10
2018-06-28T00:25:57.528Z,1.43
2018-06-28T00:28:27.257Z,1.43
2018-06-28T00:30:57.048Z,1.43
2018-06-28T00:33:25.759Z,2.23
2018-06-28T00:35:54.140Z,1.80
2018-06-28T00:38:22.780Z,1.67
2018-06-28T00:40:51.444Z,1.70
2018-06-28T00:43:19.819Z,1.93
2018-06-28T00:45:48.222Z,1.43
2018-06-28T00:48:16.598Z,1.70
2018-06-28T00:50:45.321Z,2.20
2018-06-28T00:53:13.795Z,1.83
2018-06-28T00:55:42.174Z,1.80
2018-06-28T00:58:11.259Z,2.00
2018-06-28T01:00:39.636Z,1.40
2018-06-28T01:03:08.008Z,1.77
2018-06-28T01:05:36.593Z,1.73
2018-06-28T01:08:05.407Z,1.70
2018-06-28T01:10:33.768Z,1.97
2018-06-28T01:13:02.447Z,2.00
2018-06-28T01:15:30.820Z,1.60
2018-06-28T01:17:59.441Z,2.07
2018-06-28T01:20:27.820Z,1.63
2018-06-28T01:22:56.231Z,1.93
2018-06-28T01:25:24.656Z,1.90
2018-06-28T01:27:53.337Z,2.00
2018-06-28T01:30:21.775Z,2.23
2018-06-28T01:32:50.167Z,1.60
2018-06-28T01:35:18.543Z,1.90
2018-06-28T01:37:47.232Z,2.40
2018-06-28T01:40:15.583Z,1.73
2018-06-28T01:42:56.659Z,1.97
2018-06-28T01:45:25.706Z,1.83
2018-06-28T01:50:23.091Z,2.60
2018-06-28T01:52:51.498Z,2.40
2018-06-28T01:55:20.232Z,2.23
2018-06-28T01:57:48.928Z,2.23
2018-06-28T02:00:17.677Z,1.73
2018-06-28T02:02:46.360Z,2.00
2018-06-28T02:05:15.300Z,2.70
2018-06-28T02:07:43.688Z,1.60
2018-06-28T02:10:12.212Z,2.47
2018-06-28T02:12:40.936Z,2.53
2018-06-28T02:15:09.831Z,3.13
2018-06-28T02:17:38.245Z,1.63
2018-06-28T02:20:06.607Z,2.10
2018-06-28T02:22:35.088Z,2.53
2018-06-28T02:25:03.781Z,1.83
2018-06-28T02:27:32.854Z,2.40
2018-06-28T02:30:01.220Z,2.73
2018-06-28T02:32:30.116Z,2.23
2018-06-28T02:34:58.529Z,1.90
2018-06-28T02:37:27.176Z,1.73
2018-06-28T02:39:56.171Z,1.90
2018-06-28T02:42:24.891Z,2.23
2018-06-28T02:44:53.545Z,1.97
2018-06-28T02:47:21.915Z,2.50
2018-06-28T02:49:50.488Z,2.20
2018-06-28T02:52:19.129Z,2.03
2018-06-28T02:54:48.087Z,2.57
2018-06-28T02:57:16.449Z,2.53
2018-06-28T02:59:44.875Z,2.27
2018-06-28T03:02:13.243Z,2.30
2018-06-28T03:04:41.648Z,2.30
2018-06-28T03:07:10.324Z,2.40
2018-06-28T03:09:38.992Z,2.60
2018-06-28T03:12:07.947Z,2.20
2018-06-28T03:14:36.502Z,2.63
2018-06-28T03:17:04.899Z,2.30
2018-06-28T03:19:33.254Z,2.90
2018-06-28T03:22:01.623Z,2.27
2018-06-28T03:24:30.099Z,2.83
2018-06-28T03:26:58.769Z,3.67
2018-06-28T03:29:27.119Z,2.60
2018-06-28T03:31:55.468Z,3.50
2018-06-28T03:34:23.839Z,3.40
2018-06-28T03:36:52.700Z,2.93
2018-06-28T03:39:21.372Z,1.97
2018-06-28T03:41:49.740Z,2.67
2018-06-28T03:44:18.650Z,2.37
2018-06-28T03:46:47.299Z,2.50
2018-06-28T03:49:15.700Z,2.80
2018-06-28T03:51:44.424Z,2.53
2018-06-28T03:54:12.485Z,3.57
2018-06-28T03:56:40.847Z,2.50
2018-06-28T03:59:13.279Z,2.87
2018-06-28T04:01:41.648Z,2.97
2018-06-28T04:04:10.012Z,2.80
2018-06-28T04:06:38.593Z,2.90
2018-06-28T04:09:11.125Z,3.50
2018-06-28T04:11:39.844Z,3.23
2018-06-28T04:14:08.239Z,2.87
2018-06-28T04:16:36.863Z,2.90
2018-06-28T04:19:06.107Z,2.37
2018-06-28T04:21:35.156Z,3.00
2018-06-28T04:24:03.807Z,3.07
2018-06-28T04:26:32.555Z,3.00
2018-06-28T04:29:00.924Z,3.37
2018-06-28T04:31:29.515Z,2.70
2018-06-28T04:33:58.195Z,2.30
2018-06-28T04:36:26.660Z,2.77
2018-06-28T04:38:55.047Z,3.07
2018-06-28T04:41:23.684Z,2.10
2018-06-28T04:43:52.295Z,2.47
2018-06-28T04:46:20.924Z,2.60
2018-06-28T04:48:49.264Z,2.97
2018-06-28T04:51:17.622Z,2.37
2018-06-28T04:53:47.032Z,1.90
2018-06-28T04:56:15.389Z,2.60
2018-06-28T04:58:44.300Z,2.27
2018-06-28T05:01:13.019Z,3.03
2018-06-28T05:03:42.211Z,2.27
2018-06-28T05:06:10.792Z,2.90
2018-06-28T05:08:39.270Z,2.50
2018-06-28T05:11:08.172Z,2.40
2018-06-28T05:13:36.535Z,2.13
2018-06-28T05:16:04.956Z,2.83
2018-06-28T05:18:33.318Z,2.50
2018-06-28T05:21:01.687Z,2.10
2018-06-28T05:23:30.052Z,2.33
2018-06-28T05:25:58.756Z,2.43
2018-06-28T05:28:27.424Z,2.83
2018-06-28T05:30:55.796Z,2.70
2018-06-28T05:33:24.164Z,2.00
2018-06-28T05:35:52.543Z,2.73
2018-06-28T05:38:21.180Z,2.53
2018-06-28T05:40:49.532Z,2.30
2018-06-28T05:43:18.216Z,2.30
2018-06-28T05:45:46.905Z,1.87
2018-06-28T05:48:15.287Z,1.80
2018-06-28T05:50:43.668Z,2.77
2018-06-28T05:53:12.375Z,2.03
2018-06-28T05:55:40.764Z,1.87
2018-06-28T05:58:09.135Z,2.83
2018-06-28T06:00:37.974Z,2.37
2018-06-28T06:03:06.383Z,2.43
2018-06-28T06:05:34.772Z,2.23
2018-06-28T06:08:03.161Z,2.83
2018-06-28T06:10:31.548Z,1.83
2018-06-28T06:13:00.188Z,2.50
2018-06-28T06:15:28.566Z,2.40
2018-06-28T06:17:57.192Z,1.80
2018-06-28T06:20:26.037Z,2.43
2018-06-28T06:22:54.166Z,2.60
2018-06-28T06:25:22.856Z,2.27
2018-06-28T06:27:51.680Z,2.37
2018-06-28T06:30:20.086Z,2.60
2018-06-28T06:32:48.735Z,3.20
2018-06-28T06:35:17.464Z,2.20
2018-06-28T06:37:46.203Z,2.50
2018-06-28T06:40:14.875Z,2.33
2018-06-28T06:42:43.620Z,2.50
2018-06-28T06:45:12.300Z,2.80
2018-06-28T06:47:41.020Z,2.87
2018-06-28T06:50:09.930Z,2.73
2018-06-28T06:52:38.320Z,2.43
2018-06-28T06:55:06.716Z,2.90
2018-06-28T06:57:35.142Z,2.83
2018-06-28T07:00:03.880Z,2.80
2018-06-28T07:02:32.540Z,2.57
2018-06-28T07:05:00.932Z,2.00
2018-06-28T07:07:29.287Z,2.60
2018-06-28T07:09:57.663Z,2.80
2018-06-28T07:12:26.032Z,2.60
2018-06-28T07:14:54.440Z,3.07
2018-06-28T07:17:22.803Z,2.00
2018-06-28T07:19:51.172Z,2.43
2018-06-28T07:22:20.172Z,2.70
2018-06-28T07:24:49.063Z,2.33
2018-06-28T07:27:17.991Z,2.63
2018-06-28T07:29:46.667Z,2.83
2018-06-28T07:32:15.313Z,3.03
2018-06-28T07:34:43.723Z,2.23
2018-06-28T07:37:12.099Z,2.80
2018-06-28T07:39:40.471Z,1.77
2018-06-28T07:42:08.525Z,2.83
2018-06-28T07:44:37.504Z,2.07
2018-06-28T07:47:05.886Z,2.33
2018-06-28T07:49:34.548Z,2.50
2018-06-28T07:52:02.917Z,2.50
2018-06-28T07:54:30.976Z,2.47
2018-06-28T07:56:59.352Z,2.47
2018-06-28T07:59:27.984Z,2.43
2018-06-28T08:01:56.683Z,2.83
2018-06-28T08:04:25.072Z,2.30
2018-06-28T08:06:53.451Z,2.47
2018-06-28T08:09:22.372Z,2.50
2018-06-28T08:11:50.983Z,2.97
2018-06-28T08:14:19.364Z,2.60
2018-06-28T08:16:47.979Z,2.30
2018-06-28T08:19:16.616Z,2.50
2018-06-28T08:21:45.008Z,2.80
2018-06-28T08:24:13.931Z,2.70
2018-06-28T08:26:42.428Z,2.93
2018-06-28T08:29:11.980Z,2.47
2018-06-28T08:31:40.380Z,2.53
2018-06-28T08:34:08.744Z,2.97
2018-06-28T08:36:37.691Z,2.90
2018-06-28T08:39:08.208Z,2.43
2018-06-28T08:41:37.083Z,2.67
2018-06-28T08:44:06.095Z,2.80
2018-06-28T08:46:35.217Z,3.30
2018-06-28T08:49:03.748Z,2.60
2018-06-28T08:51:32.351Z,3.17
2018-06-28T08:54:01.387Z,3.37
2018-06-28T08:56:30.120Z,3.03
2018-06-28T08:58:58.827Z,3.17
2018-06-28T09:01:27.503Z,2.90
2018-06-28T09:03:57.045Z,4.10
2018-06-28T09:06:25.660Z,2.33
2018-06-28T09:08:54.023Z,2.17
2018-06-28T09:11:22.736Z,3.03
2018-06-28T09:13:51.431Z,2.47
2018-06-28T09:16:19.895Z,2.57
2018-06-28T09:18:48.604Z,2.90
2018-06-28T09:21:17.488Z,2.60
2018-06-28T09:23:46.171Z,3.70
2018-06-28T09:26:14.651Z,3.17
2018-06-28T09:28:43.059Z,2.57
2018-06-28T09:31:11.411Z,2.73
2018-06-28T09:33:39.835Z,2.10
2018-06-28T09:36:08.708Z,2.53
2018-06-28T09:38:37.075Z,2.40
2018-06-28T09:41:05.489Z,2.20
2018-06-28T09:43:34.128Z,2.90
2018-06-28T09:46:02.866Z,2.43
2018-06-28T09:48:31.634Z,2.67
2018-06-28T09:51:00.279Z,2.53
2018-06-28T09:53:28.963Z,2.87
2018-06-28T09:55:57.332Z,2.10
2018-06-28T09:58:26.240Z,2.60
2018-06-28T10:00:54.592Z,2.60
2018-06-28T10:03:23.199Z,2.40
2018-06-28T10:05:51.583Z,2.87
2018-06-28T10:08:19.979Z,3.00
2018-06-28T10:10:48.572Z,2.83
2018-06-28T10:13:17.257Z,2.83
2018-06-28T10:15:45.671Z,2.63
2018-06-28T10:18:14.555Z,2.90
2018-06-28T10:20:43.247Z,3.23
2018-06-28T10:23:11.602Z,2.20
2018-06-28T10:25:39.983Z,3.07
2018-06-28T10:28:08.655Z,2.97
2018-06-28T10:30:37.284Z,2.40
2018-06-28T10:33:05.855Z,3.30
2018-06-28T10:35:34.220Z,2.93
2018-06-28T10:38:03.196Z,3.67
2018-06-28T10:40:31.559Z,3.13
2018-06-28T10:42:59.942Z,2.90
2018-06-28T10:45:28.353Z,3.17
2018-06-28T10:47:56.967Z,3.50
2018-06-28T10:50:25.345Z,2.73
2018-06-28T10:52:53.944Z,2.87
2018-06-28T10:55:22.327Z,3.40
2018-06-28T10:57:51.300Z,3.30
2018-06-28T11:00:20.248Z,3.73
2018-06-28T11:02:48.892Z,3.90
2018-06-28T11:05:17.275Z,3.13
2018-06-28T11:07:45.659Z,3.60
2018-06-28T11:10:14.028Z,2.90
2018-06-28T11:12:43.007Z,2.70
2018-06-28T11:15:11.707Z,3.23
2018-06-28T11:17:40.111Z,3.13
2018-06-28T11:20:08.496Z,2.70
2018-06-28T11:22:37.167Z,3.00
2018-06-28T11:25:05.578Z,3.00
2018-06-28T11:27:33.898Z,2.93
2018-06-28T11:30:02.681Z,2.93
2018-06-28T11:32:31.050Z,3.10
2018-06-28T11:34:59.711Z,3.00
2018-06-28T11:37:28.254Z,2.53
2018-06-28T11:39:56.912Z,3.10
2018-06-28T11:42:25.684Z,3.20
2018-06-28T11:44:54.044Z,2.67
2018-06-28T11:47:22.427Z,3.03
2018-06-28T11:49:50.789Z,2.57
2018-06-28T11:52:19.187Z,3.23
2018-06-28T11:54:47.535Z,2.80
2018-06-28T11:57:15.910Z,3.07
2018-06-28T11:59:44.886Z,3.60
2018-06-28T12:02:13.552Z,3.80
2018-06-28T12:04:42.148Z,3.57
2018-06-28T12:07:10.833Z,4.00
2018-06-28T12:09:39.287Z,4.20
2018-06-28T12:12:08.199Z,3.47
2018-06-28T12:14:36.977Z,3.80
2018-06-28T12:17:05.973Z,3.43
2018-06-28T12:19:34.328Z,3.80
2018-06-28T12:22:03.003Z,3.50
2018-06-28T12:24:31.714Z,3.40
2018-06-28T12:27:00.117Z,3.37
2018-06-28T12:29:28.727Z,3.70
2018-06-28T12:31:57.382Z,3.30
2018-06-28T12:34:26.020Z,3.33
2018-06-28T12:36:54.942Z,3.90
2018-06-28T12:39:23.339Z,3.93
2018-06-28T12:41:51.748Z,3.70
2018-06-28T12:44:20.447Z,3.43
2018-06-28T12:48:57.285Z,3.80
2018-06-28T12:52:36.899Z,3.57
2018-06-28T12:55:06.243Z,4.27
2018-06-28T12:57:35.232Z,4.30
2018-06-28T13:00:04.737Z,3.73
2018-06-28T13:02:33.400Z,3.77
2018-06-28T13:05:02.283Z,3.17
2018-06-28T13:07:30.660Z,3.50
2018-06-28T13:09:59.289Z,3.80
2018-06-28T13:12:27.999Z,3.97
2018-06-28T13:14:56.680Z,3.60
2018-06-28T13:17:25.068Z,3.57
2018-06-28T13:19:53.733Z,3.13
2018-06-28T13:22:22.080Z,3.30
2018-06-28T13:24:51.047Z,4.13
2018-06-28T13:27:19.648Z,3.30
2018-06-28T13:29:48.052Z,3.90
2018-06-28T13:32:16.724Z,3.53
2018-06-28T13:34:45.831Z,3.60
2018-06-28T13:37:14.813Z,4.43
2018-06-28T13:39:43.505Z,3.40
2018-06-28T13:42:12.583Z,3.77
2018-06-28T13:44:40.951Z,3.00
2018-06-28T13:47:09.551Z,3.50
2018-06-28T13:49:38.135Z,3.40
2018-06-28T13:52:06.735Z,3.13
2018-06-28T13:54:35.387Z,3.07
2018-06-28T13:57:03.816Z,3.70
2018-06-28T13:59:32.175Z,2.87
2018-06-28T14:02:00.612Z,3.37
2018-06-28T14:04:29.088Z,3.30
2018-06-28T14:06:58.089Z,3.63
2018-06-28T14:09:26.822Z,3.57
2018-06-28T14:11:55.703Z,3.50
2018-06-28T14:14:24.667Z,3.57
2018-06-28T14:16:53.415Z,4.03
2018-06-28T14:19:22.484Z,3.20
2018-06-28T14:21:51.848Z,3.83
2018-06-28T14:24:22.559Z,3.70
2018-06-28T14:26:50.986Z,3.70
2018-06-28T14:29:19.895Z,4.00
2018-06-28T14:31:48.746Z,4.03
2018-06-28T14:34:18.322Z,4.57
2018-06-28T14:36:46.983Z,3.97
2018-06-28T14:39:15.373Z,3.70
2018-06-28T14:41:45.645Z,4.13
2018-06-28T14:44:15.096Z,4.77
2018-06-28T14:46:44.024Z,4.23
2018-06-28T14:49:13.667Z,3.97
2018-06-28T14:51:42.607Z,4.80
2018-06-28T14:54:11.131Z,4.83
2018-06-28T14:56:39.801Z,4.90
2018-06-28T14:59:08.795Z,4.03
2018-06-28T15:01:38.599Z,6.43
2018-06-28T15:04:08.228Z,6.00
2018-06-28T15:06:36.690Z,6.50
2018-06-28T15:09:11.817Z,5.93
2018-06-28T15:11:42.417Z,6.97
2018-06-28T15:14:10.871Z,6.13
2018-06-28T15:16:39.831Z,6.10
2018-06-28T15:19:08.313Z,6.97
2018-06-28T15:21:36.978Z,6.30
2018-06-28T15:24:05.711Z,12.70
2018-06-28T15:26:34.096Z,8.83
2018-06-28T15:29:02.755Z,9.13
2018-06-28T15:31:31.144Z,9.50
2018-06-28T15:33:59.520Z,7.80
2018-06-28T15:36:28.160Z,7.17
2018-06-28T15:38:57.071Z,7.50
2018-06-28T15:41:25.475Z,6.63
2018-06-28T15:43:54.117Z,7.40
2018-06-28T15:46:22.528Z,7.20
2018-06-28T15:48:50.940Z,6.13
2018-06-28T15:51:19.007Z,8.10
2018-06-28T15:53:47.728Z,7.23
2018-06-28T15:56:16.443Z,6.33
2018-06-28T15:58:45.354Z,6.87
2018-06-28T16:01:14.019Z,6.83
2018-06-28T16:03:42.443Z,6.47
2018-06-28T16:06:11.484Z,7.20
2018-06-28T16:08:40.017Z,7.50
2018-06-28T16:11:08.475Z,7.70
2018-06-28T16:13:37.441Z,7.63
2018-06-28T16:16:06.228Z,8.27
2018-06-28T16:18:34.687Z,6.30
2018-06-28T16:21:03.112Z,9.27
2018-06-28T16:23:31.500Z,6.40
2018-06-28T16:25:59.928Z,6.60
2018-06-28T16:28:28.279Z,6.43
2018-06-28T16:30:56.931Z,6.30
2018-06-28T16:33:25.411Z,5.97
2018-06-28T16:35:53.799Z,6.33
2018-06-28T16:38:22.162Z,6.17
2018-06-28T16:40:50.535Z,7.00
2018-06-28T16:43:19.891Z,6.40
2018-06-28T16:45:48.249Z,6.77
2018-06-28T16:48:17.298Z,6.60
2018-06-28T16:50:46.191Z,7.07
2018-06-28T16:53:14.851Z,8.13
2018-06-28T16:55:43.543Z,6.20
2018-06-28T16:58:11.928Z,9.30
2018-06-28T17:00:41.069Z,7.10
2018-06-28T17:03:13.196Z,7.17
2018-06-28T17:05:41.595Z,6.80
2018-06-28T17:08:10.176Z,6.30
2018-06-28T17:10:38.844Z,6.40
2018-06-28T17:13:07.667Z,7.27
2018-06-28T17:15:36.847Z,6.90
2018-06-28T17:18:05.292Z,7.50
2018-06-28T17:20:33.976Z,6.30
2018-06-28T17:23:03.038Z,7.17
2018-06-28T17:25:31.367Z,6.33
2018-06-28T17:28:00.048Z,6.40
2018-06-28T17:30:28.427Z,7.27
2018-06-28T17:32:57.711Z,6.00
2018-06-28T17:35:26.484Z,5.87
2018-06-28T17:37:55.210Z,5.97
2018-06-28T17:40:23.721Z,5.17
2018-06-28T17:42:52.376Z,5.97
2018-06-28T17:45:21.031Z,5.77
2018-06-28T17:47:50.583Z,5.20
2018-06-28T17:50:19.762Z,5.60
2018-06-28T17:52:48.175Z,6.67
2018-06-28T17:55:16.592Z,5.07
2018-06-28T17:57:45.090Z,6.10
2018-06-28T18:00:14.531Z,6.27
2018-06-28T18:02:42.919Z,7.43
2018-06-28T18:05:11.316Z,7.37
2018-06-28T18:07:39.868Z,9.37
2018-06-28T18:10:08.312Z,8.20
2018-06-28T18:12:36.916Z,7.90
2018-06-28T18:15:05.480Z,8.27
2018-06-28T18:17:33.861Z,8.20
2018-06-28T18:20:03.161Z,9.03
2018-06-28T18:22:32.051Z,8.17
2018-06-28T18:25:00.711Z,6.20
2018-06-28T18:27:29.346Z,6.63
2018-06-28T18:29:58.017Z,6.90
2018-06-28T18:32:26.446Z,6.30
2018-06-28T18:34:54.811Z,6.17
2018-06-28T18:37:23.447Z,6.43
2018-06-28T18:39:51.881Z,6.20
2018-06-28T18:42:21.295Z,6.17
2018-06-28T18:44:50.523Z,6.83
2018-06-28T18:47:19.519Z,6.43
2018-06-28T18:49:48.075Z,5.80
2018-06-28T18:52:16.475Z,6.17
2018-06-28T18:54:44.875Z,5.73
2018-06-28T18:57:13.629Z,5.37
2018-06-28T18:59:43.231Z,4.17
2018-06-28T19:02:11.768Z,4.53
2018-06-28T19:04:40.419Z,4.67
2018-06-28T19:07:09.160Z,4.77
2018-06-28T19:09:42.951Z,4.07
2018-06-28T19:12:11.366Z,4.60
2018-06-28T19:14:45.638Z,4.00
2018-06-28T19:17:14.210Z,5.90
2018-06-28T19:19:42.683Z,4.37
2018-06-28T19:22:16.759Z,4.27
2018-06-28T19:24:45.127Z,4.50
2018-06-28T19:27:13.511Z,4.40
2018-06-28T19:29:47.379Z,4.90
2018-06-28T19:32:20.912Z,5.20
2018-06-28T19:34:49.597Z,5.33
2018-06-28T19:37:23.372Z,6.40
2018-06-28T19:39:57.335Z,4.73
2018-06-28T19:42:30.987Z,5.77
2018-06-28T19:44:59.410Z,6.37
2018-06-28T19:47:28.111Z,6.50
2018-06-28T19:50:02.022Z,5.00
2018-06-28T19:52:36.268Z,5.00
2018-06-28T19:55:05.115Z,4.67
2018-06-28T19:57:35.129Z,6.37
2018-06-28T20:00:03.791Z,5.30
2018-06-28T20:02:37.591Z,5.17
2018-06-28T20:05:06.028Z,5.20
2018-06-28T20:07:34.501Z,6.30
2018-06-28T20:10:02.920Z,5.27
2018-06-28T20:13:40.800Z,5.63
2018-06-28T20:16:14.467Z,5.60
2018-06-28T20:18:48.272Z,4.57
2018-06-28T20:21:17.127Z,5.83
2018-06-28T20:23:45.671Z,5.10
2018-06-28T20:26:19.443Z,5.90
2018-06-28T20:28:53.501Z,5.27
2018-06-28T20:31:27.455Z,6.50
2018-06-28T20:34:01.319Z,5.93
2018-06-28T20:36:29.718Z,5.30
2018-06-28T20:38:58.376Z,5.07
2018-06-28T20:41:26.785Z,5.47
2018-06-28T20:43:55.212Z,5.27
2018-06-28T20:46:24.204Z,4.90
2018-06-28T20:48:52.712Z,5.17
2018-06-28T20:51:22.544Z,4.83
2018-06-28T20:53:50.955Z,5.30
2018-06-28T20:56:19.356Z,4.60
2018-06-28T20:58:47.752Z,3.90
2018-06-28T21:01:16.251Z,4.80
2018-06-28T21:03:45.431Z,4.60
2018-06-28T21:06:14.404Z,5.30
2018-06-28T21:08:43.071Z,4.33
2018-06-28T21:11:11.819Z,4.50
2018-06-28T21:13:40.211Z,4.67
2018-06-28T21:16:08.869Z,4.77
2018-06-28T21:18:37.581Z,3.60
2018-06-28T21:21:05.988Z,4.77
2018-06-28T21:23:34.383Z,4.00
2018-06-28T21:26:03.991Z,4.57
2018-06-28T21:28:32.371Z,3.87
2018-06-28T21:31:01.075Z,5.47
2018-06-28T21:33:29.432Z,5.87
2018-06-28T21:35:58.323Z,4.87
2018-06-28T21:38:27.335Z,4.93
2018-06-28T21:40:55.719Z,4.20
2018-06-28T21:43:24.088Z,4.77
2018-06-28T21:45:52.887Z,4.00
2018-06-28T21:48:21.565Z,4.07
2018-06-28T21:50:50.263Z,5.00
2018-06-28T21:53:18.659Z,3.70
2018-06-28T21:55:47.291Z,4.33
2018-06-28T21:58:15.940Z,5.07
2018-06-28T22:00:44.392Z,5.73
2018-06-28T22:03:13.000Z,4.53
2018-06-28T22:05:41.377Z,4.90
2018-06-28T22:08:10.659Z,5.23
2018-06-28T22:10:39.611Z,4.93
2018-06-28T22:13:08.310Z,4.50
2018-06-28T22:15:36.708Z,5.40
2018-06-28T22:18:05.283Z,4.70
2018-06-28T22:20:34.391Z,4.97
2018-06-28T22:23:02.760Z,4.80
2018-06-28T22:25:32.031Z,5.70
2018-06-28T22:28:00.494Z,6.20
2018-06-28T22:30:28.871Z,4.70
2018-06-28T22:32:57.312Z,5.10
2018-06-28T22:35:25.684Z,4.63
2018-06-28T22:37:54.068Z,5.13
2018-06-28T22:40:22.715Z,5.70
2018-06-28T22:42:51.079Z,4.30
2018-06-28T22:45:19.742Z,4.03
2018-06-28T22:47:48.099Z,6.03
2018-06-28T22:50:16.463Z,4.70
2018-06-28T22:52:44.867Z,4.53
2018-06-28T22:55:13.198Z,5.17
2018-06-28T22:57:41.780Z,5.00
2018-06-28T23:00:10.211Z,5.50
2018-06-28T23:02:39.440Z,4.93
2018-06-28T23:05:07.875Z,4.30
2018-06-28T23:07:36.535Z,4.53
2018-06-28T23:10:05.031Z,5.30
2018-06-28T23:12:33.404Z,4.03
2018-06-28T23:15:02.259Z,4.77
2018-06-28T23:17:30.639Z,4.87
2018-06-28T23:19:58.996Z,5.83
2018-06-28T23:22:39.824Z,5.50
2018-06-28T23:25:08.472Z,5.97
2018-06-28T23:27:37.083Z,5.00
2018-06-28T23:30:05.527Z,4.97
2018-06-28T23:32:33.907Z,6.33
2018-06-28T23:35:02.520Z,5.23
2018-06-28T23:37:30.969Z,4.70
2018-06-28T23:39:59.351Z,5.77
2018-06-28T23:42:27.935Z,4.30
2018-06-28T23:44:56.924Z,5.63
2018-06-28T23:47:25.290Z,6.17
2018-06-28T23:49:54.028Z,5.77
2018-06-28T23:52:22.611Z,5.50
2018-06-28T23:54:50.984Z,4.20
2018-06-28T23:57:20.136Z,4.63
2018-06-28T23:59:48.652Z,5.87
